Saturday, December 07, 2019 at 6:30 a.m.

AVIATION AREA FORECAST

SIGNIFICANT FEATURE… A weak Trough across Jamaica

Comment…... This Trough is expected to remain during the weekend. On Monday, a High Pressure Ridge is expected to become
the dominant feature.

24-HOUR FORECAST
This Morning… Mostly cloudy across northern and southeastern parishes, elsewhere generally fair.

This Afternoon… Widely scattered showers across sections of most parishes with possible thunderstorm across southwestern parishes.

Tonight… Partly cloudy.

CLOUDS GENERALLY ACROSS THE ISLAND:
This Morning... FEW022 SCT036
This Afternoon... SCT018 SCT020CB BKN034

WINDS AND TEMPERATURES

Flight  20N 80W 20N 75W
Levels WIND/TEMP WIND/TEMP
450 27052KT/-66 27052KT/-66
390 27052KT/-53 27050KT/-53
340 28041KT/-42 27044KT/-43
300 27035KT/-33 27041KT/-33
240 28025KT/-16 27023KT/-17
180 30014KT/-07 28015KT/-07
100 24006KT/09 33004KT/09
50 07006KT/15 03004KT/15



Flight  15N 80W 15N 75W
Levels WIND/TEMP WIND/TEMP
450 26025KT/-66 27031KT/-67
390 24017KT/-53 26023KT/-52
340 28021KT/-40 30027KT/-40
300 28015KT/-30 27015KT/-31
240 03002KT/-16 35000KT/-15
180 08006KT/-05 05006KT/-05
100 08012KT/09 07014KT/10
50 07014KT/18 07017KT/18



AERODROME FORECAST
TAF
MKJP 071115Z 0712/0812 32008KT 9999 FEW022
     BECMG 0715/0717 15008KT
     TEMPO 0718/0723 SHRA SCT018 SCT034
     BECMG 0802/0804 35005KT=

TAF
 MKJS 071115Z 0712/0812 13007KT 9999 FEW022
      BECMG 0714/0716 04014KT
      TEMPO 0718/0723 TSRA SCT018 SCT020CB BKN034
      BECMG 0801/0803 15007KT=

JKH/OOG